»·PEaware :: N47MP 67L-L77

N47MP :: 67L-L77

FLIGHT INFORMATION

Flight Status: Arrived
Operator: Privately registered:
United States
More flights under this callsign
Pilot: Mark P. (13279)
Aircraft: Unknown
(EA55)
More flights by this aircraft type
Origin: 67L Mesquite
United States
Destination: L77 Chiriaco Summit
United States
More flights between these airports :: More routes between these airports
Route: MEADS GFS JOTNU
File this flight plan on PilotEdge
Remarks:
Altitude:
(Current/Filed)
10,500ft
Speed:
(Current/Filed)
320kts
Departed: 16-Dec-16 10:28 PM
Arrived: 16-Dec-16 11:15 PM
Distance/Time
Traveled:
207nm/0:47
Distance/Time
To Go:
Arrived

Flight Plot

Page will automatically refresh every two minutes.

Flight plan parsing failed; only flown route is shown


Map Options




Map Legend


Flown Route
Filed Route
Departure Airport
Arrival Airport
Navaid (VOR, NDB)
Fix

Horizontal Profiles

Position Reports

Time Latitude Longitude Heading Altitude Ground
Speed
16-Dec-16 22:16 36.834224 -114.057344 122 1979ft 0kts
16-Dec-16 22:17 36.834294 -114.056608 19 1979ft 8kts
16-Dec-16 22:18 36.836198 -114.055320 28 1979ft 17kts
16-Dec-16 22:19 36.839800 -114.052922 27 1979ft 13kts
16-Dec-16 22:20 36.830090 -114.058414 214 2023ft 127kts
16-Dec-16 22:21 36.781738 -114.090710 211 4479ft 263kts
16-Dec-16 22:22 36.719770 -114.130892 212 8214ft 282kts
16-Dec-16 22:23 36.653495 -114.174068 211 10455ft 296kts
16-Dec-16 22:24 36.580041 -114.221987 211 10488ft 326kts
16-Dec-16 22:25 36.499875 -114.274089 211 10495ft 328kts
16-Dec-16 22:26 36.418992 -114.326581 211 10499ft 328kts
16-Dec-16 22:27 36.337953 -114.379063 211 10499ft 328kts
16-Dec-16 22:28 36.257396 -114.431112 211 10499ft 328kts
16-Dec-16 22:29 36.176708 -114.483120 211 10499ft 328kts
16-Dec-16 22:30 36.096456 -114.536423 212 10499ft 328kts
16-Dec-16 22:31 36.017687 -114.589196 212 10499ft 327kts
16-Dec-16 22:32 35.940738 -114.640704 212 10499ft 327kts
16-Dec-16 22:33 35.865013 -114.691870 212 10500ft 327kts
16-Dec-16 22:34 35.785266 -114.745318 212 10500ft 328kts
16-Dec-16 22:35 35.706648 -114.797676 212 10500ft 328kts
16-Dec-16 22:36 35.627707 -114.850078 212 10510ft 327kts
16-Dec-16 22:37 35.548182 -114.902734 212 10516ft 327kts
16-Dec-16 22:38 35.468293 -114.955510 212 10524ft 326kts
16-Dec-16 22:39 35.389039 -115.007795 211 10552ft 359kts
16-Dec-16 22:40 35.305102 -115.062954 211 10559ft 368kts
16-Dec-16 22:41 35.218802 -115.119553 212 10572ft 371kts
16-Dec-16 22:42 35.129149 -115.178016 209 10571ft 377kts
16-Dec-16 22:43 35.037978 -115.217950 202 10559ft 386kts
16-Dec-16 22:44 34.943062 -115.259301 205 10556ft 374kts
16-Dec-16 22:45 34.899884 -115.278310 206 10553ft 362kts
16-Dec-16 22:48 34.848771 -115.300858 206 10551ft 355kts
16-Dec-16 22:49 34.755704 -115.341806 206 10551ft 353kts
16-Dec-16 22:50 34.663579 -115.382195 206 10580ft 353kts
16-Dec-16 22:51 34.570944 -115.422705 206 10663ft 356kts
16-Dec-16 22:52 34.477611 -115.463414 205 10697ft 359kts
16-Dec-16 22:53 34.383614 -115.504309 205 10697ft 359kts
16-Dec-16 22:54 34.286962 -115.540304 198 10157ft 369kts
16-Dec-16 22:55 34.187119 -115.567455 197 8966ft 369kts
16-Dec-16 22:56 34.087200 -115.594817 196 7768ft 368kts
16-Dec-16 22:57 33.990036 -115.621252 197 6608ft 352kts
16-Dec-16 22:58 33.910922 -115.642698 199 5582ft 261kts
16-Dec-16 22:59 33.847633 -115.660380 197 4847ft 258kts
16-Dec-16 23:00 33.780305 -115.678973 199 4036ft 211kts
16-Dec-16 23:01 33.736329 -115.690837 204 3524ft 121kts
16-Dec-16 23:02 33.700311 -115.700892 200 3069ft 149kts
16-Dec-16 23:03 33.660102 -115.710103 176 2799ft 152kts
16-Dec-16 23:04 33.656437 -115.673698 82 2711ft 113kts
16-Dec-16 23:05 33.669795 -115.677856 268 2199ft 85kts
16-Dec-16 23:06 33.665322 -115.707343 255 1725ft 74kts
16-Dec-16 23:07 33.664595 -115.711769 260 1716ft 0kts
16-Dec-16 23:08 33.665051 -115.709148 80 1716ft 31kts
16-Dec-16 23:09 33.665990 -115.703197 257 1716ft 0kts
16-Dec-16 23:10 33.665990 -115.703197 257 1716ft 0kts
16-Dec-16 23:11 33.665990 -115.703197 257 1716ft 0kts
16-Dec-16 23:12 33.665990 -115.703197 257 1716ft 0kts

Navigation Log

Ident Type
Flight plan parsing failed, navigation log unavailable